createdAt,value
2024-03-16T00:01:42.686Z,4.92
2024-03-16T00:04:12.262Z,4.86
2024-03-16T00:06:42.371Z,4.83
2024-03-16T00:09:09.670Z,4.79
2024-03-16T00:11:37.179Z,4.79
2024-03-16T00:14:04.580Z,4.80
2024-03-16T00:16:32.700Z,4.80
2024-03-16T00:18:59.773Z,4.80
2024-03-16T00:21:27.742Z,4.78
2024-03-16T00:23:54.750Z,4.79
2024-03-16T00:26:22.111Z,4.80
2024-03-16T00:28:49.266Z,4.82
2024-03-16T00:31:16.617Z,4.82
2024-03-16T00:33:43.647Z,4.89
2024-03-16T00:36:10.678Z,4.95
2024-03-16T00:38:37.576Z,4.99
2024-03-16T00:41:04.595Z,5.02
2024-03-16T00:43:31.515Z,5.01
2024-03-16T00:45:58.683Z,5.00
2024-03-16T00:48:25.682Z,4.98
2024-03-16T00:50:52.683Z,4.97
2024-03-16T00:53:19.692Z,4.96
2024-03-16T00:55:46.627Z,4.96
2024-03-16T00:58:13.669Z,4.94
2024-03-16T01:00:41.419Z,4.94
2024-03-16T01:03:09.174Z,4.94
2024-03-16T01:05:36.241Z,4.95
2024-03-16T01:08:04.381Z,4.95
2024-03-16T01:10:31.334Z,4.95
2024-03-16T01:12:58.329Z,4.98
2024-03-16T01:15:25.418Z,5.01
2024-03-16T01:17:52.429Z,5.00
2024-03-16T01:20:19.474Z,5.04
2024-03-16T01:22:46.415Z,5.06
2024-03-16T01:25:14.465Z,5.07
2024-03-16T01:27:41.481Z,5.07
2024-03-16T01:30:09.212Z,5.07
2024-03-16T01:32:36.124Z,5.05
2024-03-16T01:35:03.177Z,5.05
2024-03-16T01:37:31.363Z,5.04
2024-03-16T01:39:58.424Z,5.03
2024-03-16T01:42:25.489Z,5.05
2024-03-16T01:45:09.112Z,5.04
2024-03-16T01:47:36.109Z,5.03
2024-03-16T01:50:03.075Z,5.03
2024-03-16T01:52:30.418Z,5.04
2024-03-16T01:54:57.440Z,5.04
2024-03-16T01:57:24.570Z,5.02
2024-03-16T01:59:51.510Z,5.02
2024-03-16T02:02:35.647Z,5.01
2024-03-16T02:05:03.452Z,4.95
2024-03-16T02:07:30.418Z,4.95
2024-03-16T02:09:57.537Z,4.91
2024-03-16T02:12:24.562Z,4.94
2024-03-16T02:14:51.713Z,4.96
2024-03-16T02:17:18.805Z,4.97
2024-03-16T02:19:48.554Z,4.96
2024-03-16T02:22:15.786Z,4.92
2024-03-16T02:24:47.185Z,4.92
2024-03-16T02:27:14.250Z,4.94
2024-03-16T02:29:41.312Z,4.96
2024-03-16T02:32:09.931Z,5.02
2024-03-16T02:34:38.143Z,5.04
2024-03-16T02:37:06.552Z,5.06
2024-03-16T02:39:34.140Z,5.06
2024-03-16T02:42:02.222Z,5.09
2024-03-16T02:44:31.200Z,5.12
2024-03-16T02:46:59.038Z,5.13
2024-03-16T02:49:26.993Z,5.10
2024-03-16T02:51:54.580Z,5.08
2024-03-16T02:54:21.525Z,5.10
2024-03-16T02:56:48.655Z,5.07
2024-03-16T02:59:15.558Z,5.00
2024-03-16T03:01:42.577Z,5.03
2024-03-16T03:04:10.611Z,5.01
2024-03-16T03:06:39.638Z,5.01
2024-03-16T03:09:08.828Z,5.03
2024-03-16T03:11:38.986Z,5.03
2024-03-16T03:14:08.348Z,5.06
2024-03-16T03:16:35.550Z,5.05
2024-03-16T03:19:02.511Z,5.03
2024-03-16T03:21:33.141Z,5.00
2024-03-16T03:24:01.132Z,4.99
2024-03-16T03:26:30.734Z,4.96
2024-03-16T03:28:58.655Z,4.94
2024-03-16T03:31:25.690Z,4.94
2024-03-16T03:33:52.918Z,4.93
2024-03-16T03:36:20.132Z,4.92
2024-03-16T03:38:47.125Z,4.87
2024-03-16T03:41:14.203Z,4.84
2024-03-16T03:43:41.493Z,4.83
2024-03-16T03:46:14.707Z,4.81
2024-03-16T03:48:51.253Z,4.80
2024-03-16T03:51:18.306Z,4.83
2024-03-16T03:53:45.271Z,4.86
2024-03-16T03:56:12.248Z,4.86
2024-03-16T03:58:39.242Z,4.87
2024-03-16T04:01:06.308Z,4.86
2024-03-16T04:03:33.485Z,4.81
2024-03-16T04:06:00.388Z,4.74
2024-03-16T04:08:27.681Z,4.74
2024-03-16T04:10:54.685Z,4.74
2024-03-16T04:13:21.633Z,4.73
2024-03-16T04:15:48.998Z,4.70
2024-03-16T04:18:15.891Z,4.66
2024-03-16T04:20:43.008Z,4.64
2024-03-16T04:23:10.347Z,4.64
2024-03-16T04:25:37.308Z,4.66
2024-03-16T04:28:04.551Z,4.66
2024-03-16T04:30:31.614Z,4.69
2024-03-16T04:32:58.810Z,4.72
2024-03-16T04:35:25.809Z,4.72
2024-03-16T04:37:53.908Z,4.76
2024-03-16T04:40:20.914Z,4.76
2024-03-16T04:42:47.962Z,4.79
2024-03-16T04:45:14.968Z,4.75
2024-03-16T04:47:41.940Z,4.74
2024-03-16T04:50:09.020Z,4.77
2024-03-16T04:52:36.006Z,4.75
2024-03-16T04:55:04.826Z,4.67
2024-03-16T04:57:31.928Z,4.65
2024-03-16T04:59:59.045Z,4.67
2024-03-16T05:02:26.044Z,4.71
2024-03-16T05:04:54.322Z,4.73
2024-03-16T05:07:22.985Z,4.72
2024-03-16T05:09:50.421Z,4.71
2024-03-16T05:12:19.702Z,4.74
2024-03-16T05:14:47.063Z,4.78
2024-03-16T05:17:14.513Z,4.80
2024-03-16T05:19:41.505Z,4.86
2024-03-16T05:22:09.189Z,4.92
2024-03-16T05:24:36.240Z,4.96
2024-03-16T05:27:03.201Z,5.03
2024-03-16T05:29:30.214Z,5.03
2024-03-16T05:31:59.346Z,5.02
2024-03-16T05:34:26.649Z,5.04
2024-03-16T05:36:53.810Z,5.04
2024-03-16T05:39:21.001Z,5.07
2024-03-16T05:41:47.938Z,5.14
2024-03-16T05:44:14.983Z,5.27
2024-03-16T05:46:42.265Z,5.25
2024-03-16T05:49:09.295Z,5.32
2024-03-16T05:51:36.305Z,5.33
2024-03-16T05:54:05.575Z,5.44
2024-03-16T05:56:33.718Z,5.58
2024-03-16T05:59:00.717Z,5.55
2024-03-16T06:01:28.018Z,5.69
2024-03-16T06:03:55.181Z,5.72
2024-03-16T06:06:22.551Z,5.60
2024-03-16T06:08:49.525Z,5.55
2024-03-16T06:11:16.777Z,5.52
2024-03-16T06:13:43.972Z,5.59
2024-03-16T06:16:10.993Z,5.67
2024-03-16T06:18:41.424Z,5.56
2024-03-16T06:21:11.198Z,5.53
2024-03-16T06:23:38.419Z,5.56
2024-03-16T06:26:07.579Z,5.57
2024-03-16T06:28:38.281Z,5.66
2024-03-16T06:31:10.465Z,5.75
2024-03-16T06:33:38.403Z,5.82
2024-03-16T06:36:05.928Z,5.88
2024-03-16T06:38:32.963Z,5.95
2024-03-16T06:40:59.964Z,6.01
2024-03-16T06:43:27.048Z,6.09
2024-03-16T06:45:54.063Z,6.22
2024-03-16T06:48:21.007Z,6.36
2024-03-16T06:50:50.063Z,6.43
2024-03-16T06:53:17.022Z,6.36
2024-03-16T06:55:49.386Z,6.44
2024-03-16T06:58:16.399Z,6.44
2024-03-16T07:00:43.441Z,6.53
2024-03-16T07:03:10.579Z,6.55
2024-03-16T07:05:38.681Z,6.59
2024-03-16T07:08:08.838Z,6.76
2024-03-16T07:10:35.763Z,6.85
2024-03-16T07:13:02.782Z,6.84
2024-03-16T07:15:29.804Z,6.89
2024-03-16T07:17:56.740Z,7.00
2024-03-16T07:20:23.756Z,7.08
2024-03-16T07:22:50.732Z,7.12
2024-03-16T07:25:17.762Z,7.22
2024-03-16T07:27:45.564Z,7.32
2024-03-16T07:30:12.681Z,7.43
2024-03-16T07:32:39.889Z,7.55
2024-03-16T07:35:10.937Z,7.65
2024-03-16T07:37:37.891Z,7.75
2024-03-16T07:40:07.174Z,7.81
2024-03-16T07:42:34.601Z,7.89
2024-03-16T07:45:01.563Z,7.93
2024-03-16T07:47:28.607Z,8.05
2024-03-16T07:49:55.565Z,8.11
2024-03-16T07:52:23.193Z,8.19
2024-03-16T07:54:50.293Z,8.27
2024-03-16T07:57:17.364Z,8.30
2024-03-16T07:59:44.389Z,8.24
2024-03-16T08:02:11.410Z,8.33
2024-03-16T08:04:38.413Z,8.46
2024-03-16T08:07:05.449Z,8.63
2024-03-16T08:09:32.860Z,8.80
2024-03-16T08:11:59.908Z,8.90
2024-03-16T08:14:32.744Z,9.03
2024-03-16T08:16:59.628Z,9.11
2024-03-16T08:19:26.677Z,9.17
2024-03-16T08:21:53.865Z,9.27
2024-03-16T08:24:21.284Z,9.45
2024-03-16T08:26:48.253Z,9.63
2024-03-16T08:29:15.280Z,9.75
2024-03-16T08:31:42.233Z,9.89
2024-03-16T08:34:10.700Z,9.98
2024-03-16T08:36:38.597Z,10.08
2024-03-16T08:39:06.617Z,10.16
2024-03-16T08:41:33.664Z,10.19
2024-03-16T08:44:00.595Z,10.36
2024-03-16T08:46:28.335Z,10.47
2024-03-16T08:48:55.495Z,10.50
2024-03-16T08:51:22.489Z,10.49
2024-03-16T08:53:49.595Z,10.58
2024-03-16T08:56:16.712Z,10.86
2024-03-16T08:58:46.159Z,10.84
2024-03-16T09:01:14.550Z,10.94
2024-03-16T09:03:41.590Z,11.01
2024-03-16T09:06:09.017Z,11.19
2024-03-16T09:08:38.385Z,11.39
2024-03-16T09:11:05.570Z,11.52
2024-03-16T09:13:35.113Z,11.63
2024-03-16T09:16:07.339Z,11.79
2024-03-16T09:18:35.612Z,12.00
2024-03-16T09:21:03.899Z,12.15
2024-03-16T09:23:31.294Z,12.36
2024-03-16T09:25:58.690Z,12.36
2024-03-16T09:28:25.806Z,12.39
2024-03-16T09:30:56.679Z,12.53
2024-03-16T09:33:24.475Z,12.58
2024-03-16T09:35:54.640Z,12.78
2024-03-16T09:38:21.607Z,12.97
2024-03-16T09:40:57.243Z,13.09
